Terminal Aerodrome Forecast
Issued by NWS

Home | Current Version | Previous Version | Text Only | Print | Product List | Glossary Off
Versions: 1 2 3 4 5 6 7 8 9 10 11 12 13 14 15 16 17 18 19 20

000
FTUS43 KFGF 101700
TAFBJI
TAF
KBJI 101720Z 1018/1118 18010KT P6SM SCT250
     FM110100 16007KT P6SM BKN250
     FM111500 23006KT P6SM BKN250=

USA.gov is the U.S. government's official web portal to all federal, state and local government web resources and services.